Terminal Aerodrome Forecast
Issued by NWS Wilmington, NC

Home | Current Version | Previous Version | Text Only | Print | Product List | Glossary On
Versions: 1 2 3 4 5 6 7 8 9 10 11 12 13 14 15 16 17 18 19 20 21 22 23 24 25 26
585
FTUS42 KILM 221737
TAFLBT
TAF
KLBT 221737Z 2218/2318 17006KT P6SM SCT008 SCT040 BKN100
      TEMPO 2218/2220 BKN008
     FM222000 14010KT 4SM -SHRA BR SCT015 OVC025
      TEMPO 2220/2222 BKN008 OVC020
     FM222300 14014G20KT 5SM -TSRA BR BKN020CB OVC030
      TEMPO 2300/2304 VRB30G45KT 1SM +TSRA BR BKN007 OVC015CB
     FM230500 20013G19KT 6SM -SHRA BKN015 BKN025
     FM230800 21009KT P6SM OVC100
     FM231100 22010KT P6SM VCSH SCT025 OVC100=

USA.gov is the U.S. government's official web portal to all federal, state and local government web resources and services.